Time;durP1;ratioP1;P1;durP2;ratioP2;P2;SDS_P1;SDS_P2;PMS_P1;PMS_P2;Temp;Humidity;BMP_temperature;BMP_pressure;BME280_temperature;BME280_humidity;BME280_pressure;Samples;Min_cycle;Max_cycle;Signal;HPM_P1;HPM_P2
2022/03/16 00:01:27;;;;;;;35.17;30.20;;;;;;;7.58;nan;98815.88;5040013;28;20205;-70
2022/03/16 00:03:54;;;;;;;37.80;31.73;;;;;;;7.60;nan;98813.03;5039993;28;20348;-71
2022/03/16 00:06:20;;;;;;;37.90;31.77;;;;;;;7.57;nan;98816.03;5040542;28;20224;-70
2022/03/16 00:08:46;;;;;;;40.00;32.77;;;;;;;7.56;nan;98823.16;5040027;28;20305;-71
2022/03/16 00:11:13;;;;;;;39.43;32.13;;;;;;;7.53;nan;98820.03;5039558;28;20221;-70
2022/03/16 00:13:40;;;;;;;36.73;31.07;;;;;;;7.51;nan;98828.16;5039767;28;20251;-71
2022/03/16 00:16:06;;;;;;;37.67;31.47;;;;;;;7.49;nan;98818.75;5039819;28;20206;-71
2022/03/16 00:18:33;;;;;;;37.97;31.53;;;;;;;7.56;nan;98817.06;5039900;28;20205;-71
2022/03/16 00:20:59;;;;;;;37.80;31.23;;;;;;;7.51;nan;98822.06;5039865;28;20205;-71
2022/03/16 00:23:27;;;;;;;36.50;31.47;;;;;;;7.64;nan;98816.97;5039808;28;20214;-71
2022/03/16 00:25:54;;;;;;;34.47;30.07;;;;;;;7.73;nan;98819.31;5039916;28;20209;-71
2022/03/16 00:28:20;;;;;;;35.17;30.10;;;;;;;7.68;nan;98820.88;5039789;28;20217;-71
2022/03/16 00:30:46;;;;;;;34.10;29.90;;;;;;;7.67;nan;98814.78;5039696;28;20248;-71
2022/03/16 00:33:13;;;;;;;33.30;29.67;;;;;;;7.69;nan;98818.03;5039475;28;20548;-71
2022/03/16 00:35:39;;;;;;;36.50;30.87;;;;;;;7.60;nan;98820.97;5039655;28;20236;-68
2022/03/16 00:38:06;;;;;;;36.53;31.63;;;;;;;7.63;nan;98817.94;5048720;28;20201;-69
2022/03/16 00:40:35;;;;;;;36.53;31.07;;;;;;;7.58;nan;98820.31;5059397;28;20656;-70
2022/03/16 00:43:01;;;;;;;35.43;30.47;;;;;;;7.49;nan;98818.75;5059381;28;20213;-71
2022/03/16 00:45:27;;;;;;;37.23;31.53;;;;;;;7.55;nan;98818.06;5059598;28;20225;-71
2022/03/16 00:47:54;;;;;;;37.07;31.33;;;;;;;7.53;nan;98826.16;5059661;28;20209;-71
2022/03/16 00:50:20;;;;;;;39.80;32.43;;;;;;;7.58;nan;98818.50;5060417;28;20235;-71
2022/03/16 00:52:47;;;;;;;37.80;31.77;;;;;;;7.48;nan;98822.41;5059300;28;20209;-71
2022/03/16 00:55:13;;;;;;;40.77;33.13;;;;;;;7.52;nan;98818.41;5059211;28;20240;-71
2022/03/16 00:57:41;;;;;;;38.77;32.40;;;;;;;7.59;nan;98824.59;5060378;28;20209;-71
2022/03/16 01:00:13;;;;;;;42.97;33.43;;;;;;;7.58;nan;98812.38;5059233;28;20207;-71
2022/03/16 01:02:46;;;;;;;42.97;33.60;;;;;;;7.51;nan;98816.78;5059446;28;20204;-71
2022/03/16 01:05:18;;;;;;;43.43;34.47;;;;;;;7.40;nan;98809.25;5059302;28;20225;-71
2022/03/16 01:07:50;;;;;;;44.77;34.60;;;;;;;7.44;nan;98807.91;5059154;28;20193;-71
2022/03/16 01:10:22;;;;;;;44.30;35.57;;;;;;;7.45;nan;98802.44;5056009;28;20217;-71
2022/03/16 01:12:55;;;;;;;48.13;36.03;;;;;;;7.42;nan;98801.97;5055980;28;20259;-71
2022/03/16 01:15:27;;;;;;;47.37;34.27;;;;;;;7.56;nan;98803.81;5056112;28;20228;-69
2022/03/16 01:17:54;;;;;;;46.43;36.17;;;;;;;7.46;nan;98800.63;5055856;28;20190;-71
2022/03/16 01:20:21;;;;;;;49.53;36.53;;;;;;;7.44;nan;98799.97;5056162;28;20201;-70
2022/03/16 01:22:47;;;;;;;46.90;36.43;;;;;;;7.31;nan;98799.75;5056114;28;20212;-71
2022/03/16 01:25:14;;;;;;;50.33;38.27;;;;;;;7.25;nan;98797.84;5055974;28;20229;-71
2022/03/16 01:27:40;;;;;;;54.83;39.97;;;;;;;7.23;nan;98800.66;5056003;28;20380;-71
2022/03/16 01:30:08;;;;;;;57.20;38.93;;;;;;;7.23;nan;98810.41;5055970;28;20229;-71
2022/03/16 01:32:35;;;;;;;55.80;40.57;;;;;;;7.22;nan;98804.31;5055950;28;20205;-71
2022/03/16 01:35:01;;;;;;;53.20;39.00;;;;;;;7.22;nan;98799.03;5056414;28;20255;-71
2022/03/16 01:37:33;;;;;;;54.37;38.27;;;;;;;7.24;nan;98799.66;5055902;28;20227;-71
2022/03/16 01:40:01;;;;;;;50.27;37.33;;;;;;;7.25;nan;98795.19;5055485;28;20198;-71
2022/03/16 01:42:28;;;;;;;53.57;38.90;;;;;;;7.23;nan;98798.03;5055807;28;20231;-71
2022/03/16 01:44:57;;;;;;;53.17;39.10;;;;;;;7.23;nan;98805.13;5055690;28;20303;-71
2022/03/16 01:47:24;;;;;;;52.83;37.53;;;;;;;7.25;nan;98803.97;5055689;28;20295;-71
2022/03/16 01:49:52;;;;;;;53.57;37.73;;;;;;;7.30;nan;98808.72;5055579;28;20319;-71
2022/03/16 01:52:23;;;;;;;54.57;37.83;;;;;;;7.28;nan;98802.78;5055608;28;20201;-71
2022/03/16 01:54:51;;;;;;;55.97;38.83;;;;;;;7.27;nan;98807.25;5055150;28;20248;-71
2022/03/16 01:57:18;;;;;;;57.73;39.87;;;;;;;7.31;nan;98813.81;5055501;28;20232;-71
2022/03/16 01:59:45;;;;;;;54.07;37.63;;;;;;;7.26;nan;98818.00;5055467;28;20201;-71
2022/03/16 02:02:11;;;;;;;52.43;37.37;;;;;;;7.28;nan;98818.66;5055418;28;20209;-71
2022/03/16 02:04:39;;;;;;;57.23;39.97;;;;;;;7.27;nan;98812.53;5055275;28;20229;-71
2022/03/16 02:07:06;;;;;;;57.83;40.60;;;;;;;7.25;nan;98811.06;5054948;28;20255;-71
2022/03/16 02:09:33;;;;;;;63.70;41.27;;;;;;;7.22;nan;98806.13;5055007;28;20216;-71
2022/03/16 02:12:00;;;;;;;57.63;40.60;;;;;;;7.27;nan;98812.53;5055008;28;20216;-71
2022/03/16 02:14:28;;;;;;;56.47;40.17;;;;;;;7.33;nan;98805.72;5054978;28;20225;-71
2022/03/16 02:16:56;;;;;;;58.73;40.17;;;;;;;7.27;nan;98815.19;5055087;28;20213;-71
2022/03/16 02:19:24;;;;;;;59.23;40.17;;;;;;;7.25;nan;98809.25;5054759;28;20236;-71
2022/03/16 02:21:57;;;;;;;61.53;40.40;;;;;;;7.28;nan;98805.44;5053835;28;20251;-71
2022/03/16 02:24:25;;;;;;;62.20;41.60;;;;;;;7.30;nan;98806.06;5054937;28;20225;-71
2022/03/16 02:26:51;;;;;;;55.73;38.67;;;;;;;7.47;nan;98805.72;5054537;28;20742;-71
2022/03/16 02:29:18;;;;;;;53.43;38.10;;;;;;;7.44;nan;98803.44;5054829;28;20206;-71
2022/03/16 02:31:44;;;;;;;52.13;38.63;;;;;;;7.41;nan;98806.44;5054703;28;20225;-71
2022/03/16 02:34:11;;;;;;;57.53;39.07;;;;;;;7.33;nan;98806.50;5054712;28;20229;-71
2022/03/16 02:36:37;;;;;;;60.00;40.80;;;;;;;7.29;nan;98807.88;5054354;28;20671;-71
2022/03/16 02:39:03;;;;;;;64.80;42.30;;;;;;;7.27;nan;98801.97;5055209;28;20206;-71
2022/03/16 02:41:30;;;;;;;61.13;41.40;;;;;;;7.29;nan;98809.72;5054573;28;20205;-71
2022/03/16 02:43:57;;;;;;;60.67;41.37;;;;;;;7.25;nan;98811.06;5054499;28;20225;-71
2022/03/16 02:46:23;;;;;;;62.33;41.17;;;;;;;7.23;nan;98810.41;5054529;28;20220;-71
2022/03/16 02:48:49;;;;;;;62.83;40.37;;;;;;;7.21;nan;98805.34;5054466;28;20201;-71
2022/03/16 02:51:16;;;;;;;64.47;41.10;;;;;;;7.19;nan;98809.97;5054032;28;20312;-71
2022/03/16 02:53:42;;;;;;;59.57;39.70;;;;;;;7.23;nan;98807.75;5054148;28;20225;-71
2022/03/16 02:56:08;;;;;;;60.43;42.03;;;;;;;7.19;nan;98807.31;5054353;28;20194;-71
2022/03/16 02:58:35;;;;;;;61.50;41.13;;;;;;;7.22;nan;98806.97;5053930;28;20649;-71
2022/03/16 03:01:01;;;;;;;63.23;41.27;;;;;;;7.27;nan;98811.69;5054186;28;20201;-71
2022/03/16 03:03:28;;;;;;;61.20;40.20;;;;;;;7.28;nan;98808.88;5054090;28;20292;-71
2022/03/16 03:05:55;;;;;;;62.13;39.83;;;;;;;7.28;nan;98813.38;5054122;28;20201;-71
2022/03/16 03:08:22;;;;;;;61.40;39.80;;;;;;;7.26;nan;98812.72;5054301;28;20205;-71
2022/03/16 03:10:49;;;;;;;50.77;37.37;;;;;;;7.27;nan;98819.63;5053987;28;20253;-71
2022/03/16 03:13:16;;;;;;;55.60;39.13;;;;;;;7.29;nan;98817.66;5053729;28;20664;-71
2022/03/16 03:15:42;;;;;;;56.37;38.67;;;;;;;7.28;nan;98816.00;5053688;28;20232;-71
2022/03/16 03:18:09;;;;;;;59.27;38.70;;;;;;;7.24;nan;98822.66;5053902;28;20205;-71
2022/03/16 03:20:35;;;;;;;60.80;40.90;;;;;;;7.32;nan;98820.75;5053607;28;20207;-71
2022/03/16 03:23:02;;;;;;;59.73;41.50;;;;;;;7.22;nan;98820.19;5053917;28;20216;-71
2022/03/16 03:25:28;;;;;;;59.07;40.43;;;;;;;7.18;nan;98821.53;5053715;28;20228;-71
2022/03/16 03:27:55;;;;;;;59.77;41.73;;;;;;;7.19;nan;98822.38;5053806;28;20292;-71
2022/03/16 03:30:21;;;;;;;55.43;39.63;;;;;;;7.21;nan;98820.34;5053627;28;20561;-71
2022/03/16 03:32:47;;;;;;;54.17;39.43;;;;;;;7.14;nan;98820.25;5053367;28;20212;-71
2022/03/16 03:35:14;;;;;;;61.90;43.73;;;;;;;7.14;nan;98824.72;5053599;28;20225;-71
2022/03/16 03:37:40;;;;;;;58.53;41.23;;;;;;;7.26;nan;98820.63;5053586;28;20201;-71
2022/03/16 03:40:07;;;;;;;61.40;43.50;;;;;;;7.19;nan;98819.72;5053614;28;20567;-71
2022/03/16 03:42:34;;;;;;;59.37;42.00;;;;;;;7.15;nan;98821.09;5053591;28;20216;-71
2022/03/16 03:45:00;;;;;;;59.37;42.03;;;;;;;7.18;nan;98818.91;5053538;28;20221;-71
2022/03/16 03:47:27;;;;;;;62.57;42.87;;;;;;;7.21;nan;98823.00;5053536;28;20266;-71
2022/03/16 03:49:54;;;;;;;64.00;42.60;;;;;;;7.19;nan;98833.75;5053356;28;20209;-71
2022/03/16 03:52:20;;;;;;;53.83;38.70;;;;;;;7.23;nan;98835.03;5053429;28;20231;-71
2022/03/16 03:54:47;;;;;;;59.87;40.93;;;;;;;7.21;nan;98828.28;5053557;28;20671;-71
2022/03/16 03:57:13;;;;;;;56.57;38.73;;;;;;;7.22;nan;98827.28;5053342;28;20206;-71
2022/03/16 03:59:39;;;;;;;55.43;38.50;;;;;;;7.21;nan;98828.28;5053324;28;20212;-71
2022/03/16 04:02:06;;;;;;;59.70;40.50;;;;;;;7.20;nan;98834.59;5053363;28;20649;-71
2022/03/16 04:04:33;;;;;;;58.77;40.37;;;;;;;7.22;nan;98832.56;5053257;28;20319;-71
2022/03/16 04:06:59;;;;;;;62.53;40.87;;;;;;;7.21;nan;98837.06;5053412;28;20209;-71
2022/03/16 04:09:26;;;;;;;59.20;40.70;;;;;;;7.22;nan;98829.94;5052859;28;20217;-71
2022/03/16 04:11:53;;;;;;;65.07;41.47;;;;;;;7.15;nan;98835.13;5052713;28;20228;-71
2022/03/16 04:14:19;;;;;;;60.90;42.23;;;;;;;7.17;nan;98829.66;5052996;28;20232;-71
2022/03/16 04:16:45;;;;;;;60.67;40.20;;;;;;;7.22;nan;98830.75;5052803;28;20672;-72
2022/03/16 04:19:12;;;;;;;57.23;40.50;;;;;;;7.22;nan;98830.75;5052834;28;20216;-71
2022/03/16 04:21:38;;;;;;;62.17;41.00;;;;;;;7.21;nan;98831.78;5053094;28;20289;-71
2022/03/16 04:24:05;;;;;;;59.97;40.93;;;;;;;7.23;nan;98834.22;5053077;28;20225;-71
2022/03/16 04:26:32;;;;;;;59.07;40.77;;;;;;;7.21;nan;98847.63;5053165;28;20209;-71
2022/03/16 04:28:58;;;;;;;63.33;43.20;;;;;;;7.23;nan;98847.44;5052769;28;20210;-71
2022/03/16 04:31:25;;;;;;;65.93;44.20;;;;;;;7.25;nan;98848.09;5052485;28;20714;-71
2022/03/16 04:33:52;;;;;;;67.63;44.00;;;;;;;7.37;nan;98846.69;5052463;28;20703;-71
2022/03/16 04:36:18;;;;;;;67.33;45.70;;;;;;;7.28;nan;98842.47;5052594;28;20209;-71
2022/03/16 04:38:45;;;;;;;71.80;46.20;;;;;;;7.24;nan;98841.16;5052803;28;20209;-71
2022/03/16 04:41:11;;;;;;;72.67;47.97;;;;;;;7.31;nan;98836.78;5052628;28;20209;-71
2022/03/16 04:43:37;;;;;;;70.40;45.57;;;;;;;7.32;nan;98838.44;5052753;28;20201;-71
2022/03/16 04:46:04;;;;;;;70.60;44.90;;;;;;;7.25;nan;98841.00;5055659;28;20224;-71
2022/03/16 04:48:30;;;;;;;78.97;49.47;;;;;;;7.37;nan;98846.69;5056183;28;20572;-71
2022/03/16 04:50:57;;;;;;;77.03;47.80;;;;;;;7.24;nan;98849.09;5056382;28;20225;-71
2022/03/16 04:53:23;;;;;;;73.13;47.37;;;;;;;7.39;nan;98842.84;5056438;28;20211;-71
2022/03/16 04:55:49;;;;;;;74.60;48.30;;;;;;;7.33;nan;98840.09;5055972;28;20224;-71
2022/03/16 04:58:16;;;;;;;75.77;47.37;;;;;;;7.41;nan;98840.00;5056345;28;20259;-71
2022/03/16 05:00:42;;;;;;;75.80;48.87;;;;;;;7.28;nan;98835.31;5056305;28;20208;-71
2022/03/16 05:03:09;;;;;;;76.10;49.17;;;;;;;7.30;nan;98841.28;5056200;28;20287;-71
2022/03/16 05:05:35;;;;;;;82.47;48.53;;;;;;;7.29;nan;98849.38;5056158;28;20229;-71
2022/03/16 05:08:01;;;;;;;70.93;46.53;;;;;;;7.39;nan;98844.66;5055792;28;20216;-71
2022/03/16 05:10:28;;;;;;;72.00;47.37;;;;;;;7.29;nan;98847.53;5056084;28;20205;-71
2022/03/16 05:12:54;;;;;;;80.53;49.90;;;;;;;7.23;nan;98844.78;5056141;28;20209;-71
2022/03/16 05:15:21;;;;;;;83.80;50.80;;;;;;;7.15;nan;98839.59;5055718;28;20221;-71
2022/03/16 05:17:48;;;;;;;81.33;49.40;;;;;;;7.18;nan;98848.00;5055861;28;20667;-71
2022/03/16 05:20:15;;;;;;;70.30;45.17;;;;;;;7.30;nan;98840.44;5055900;28;20209;-72
2022/03/16 05:22:45;;;;;;;75.53;47.33;;;;;;;7.29;nan;98844.09;5055938;28;20205;-71
2022/03/16 05:25:14;;;;;;;70.97;45.57;;;;;;;7.31;nan;98852.66;5055747;28;20221;-71
2022/03/16 05:27:41;;;;;;;70.33;46.17;;;;;;;7.33;nan;98845.38;5055880;28;20213;-71
2022/03/16 05:30:09;;;;;;;76.00;47.40;;;;;;;7.23;nan;98847.44;5055943;28;20297;-71
2022/03/16 05:32:36;;;;;;;72.27;46.00;;;;;;;7.33;nan;98850.69;5055594;28;20221;-71
2022/03/16 05:35:04;;;;;;;74.53;46.70;;;;;;;7.33;nan;98855.97;5055628;28;20295;-71
2022/03/16 05:37:30;;;;;;;71.57;47.80;;;;;;;7.27;nan;98861.94;5055270;28;20216;-71
2022/03/16 05:39:56;;;;;;;70.37;45.00;;;;;;;7.26;nan;98862.97;5055086;28;20673;-71
2022/03/16 05:42:23;;;;;;;79.93;48.60;;;;;;;7.20;nan;98866.31;5055663;28;20228;-71
2022/03/16 05:44:54;;;;;;;74.33;47.27;;;;;;;7.24;nan;98867.63;5055591;28;20225;-71
2022/03/16 05:47:23;;;;;;;77.13;48.73;;;;;;;7.11;nan;98867.38;5055236;28;20213;-71
2022/03/16 05:49:59;;;;;;;76.97;47.67;;;;;;;7.17;nan;98871.97;5054880;28;20301;-71
2022/03/16 05:52:27;;;;;;;66.30;45.80;;;;;;;7.33;nan;98877.13;5054963;28;20219;-71
2022/03/16 05:54:57;;;;;;;65.53;44.03;;;;;;;7.44;nan;98871.41;5054614;28;20306;-71
2022/03/16 05:57:24;;;;;;;57.97;41.07;;;;;;;7.43;nan;98867.13;5054444;28;20215;-71
2022/03/16 05:59:51;;;;;;;57.20;41.80;;;;;;;7.36;nan;98872.28;5055085;28;20213;-71
2022/03/16 06:02:19;;;;;;;62.27;43.53;;;;;;;7.20;nan;98876.91;5054828;28;20215;-71
2022/03/16 06:04:45;;;;;;;62.90;43.03;;;;;;;7.22;nan;98869.59;5054602;28;20308;-71
2022/03/16 06:07:13;;;;;;;68.37;45.27;;;;;;;7.25;nan;98870.09;5054615;28;20675;-71
2022/03/16 06:09:39;;;;;;;64.30;43.50;;;;;;;7.31;nan;98874.66;5054921;28;20211;-71
2022/03/16 06:12:07;;;;;;;67.00;44.20;;;;;;;7.25;nan;98871.91;5054467;28;20325;-71
2022/03/16 06:14:33;;;;;;;69.90;45.23;;;;;;;7.30;nan;98874.81;5054686;28;20229;-71
2022/03/16 06:17:00;;;;;;;75.43;45.00;;;;;;;7.28;nan;98872.34;5054172;28;20201;-71
2022/03/16 06:19:26;;;;;;;61.10;43.10;;;;;;;7.53;nan;98886.19;5054722;28;20296;-71
2022/03/16 06:21:52;;;;;;;59.37;41.10;;;;;;;7.36;nan;98879.41;5054467;28;20201;-71
2022/03/16 06:24:19;;;;;;;62.83;40.83;;;;;;;7.35;nan;98885.69;5053959;28;20803;-71
2022/03/16 06:26:45;;;;;;;59.90;41.73;;;;;;;7.30;nan;98893.34;5054712;28;20209;-71
2022/03/16 06:29:12;;;;;;;60.50;41.13;;;;;;;7.50;nan;98895.31;5054056;28;20209;-71
2022/03/16 06:31:38;;;;;;;58.23;39.97;;;;;;;7.58;nan;98897.06;5054259;28;20585;-71
2022/03/16 06:34:04;;;;;;;59.47;39.60;;;;;;;7.51;nan;98890.84;5054102;28;20224;-71
2022/03/16 06:36:31;;;;;;;62.73;39.13;;;;;;;7.47;nan;98895.66;5054064;28;20292;-71
2022/03/16 06:38:58;;;;;;;61.77;40.43;;;;;;;7.34;nan;98899.94;5053856;28;20207;-71
2022/03/16 06:41:25;;;;;;;62.83;39.80;;;;;;;7.35;nan;98893.63;5054038;28;20216;-71
2022/03/16 06:43:51;;;;;;;58.93;38.13;;;;;;;7.44;nan;98901.34;5054155;28;20603;-71
2022/03/16 06:46:17;;;;;;;54.80;36.93;;;;;;;7.37;nan;98892.44;5053950;28;20209;-70
2022/03/16 06:48:44;;;;;;;54.83;37.73;;;;;;;7.37;nan;98891.66;5054570;28;20204;-71
2022/03/16 06:51:10;;;;;;;60.00;37.73;;;;;;;7.37;nan;98899.59;5054099;28;20225;-71
2022/03/16 06:53:37;;;;;;;54.73;36.77;;;;;;;7.35;nan;98899.75;5053428;28;20205;-70
2022/03/16 06:56:03;;;;;;;58.27;37.00;;;;;;;7.34;nan;98910.50;5053521;28;20654;-71
2022/03/16 06:58:33;;;;;;;54.73;36.97;;;;;;;7.34;nan;98910.50;5053780;28;20205;-71
2022/03/16 07:00:59;;;;;;;47.20;34.23;;;;;;;7.40;nan;98912.44;5053486;28;20205;-71
2022/03/16 07:03:25;;;;;;;47.03;34.80;;;;;;;7.42;nan;98918.38;5053681;28;20207;-71
2022/03/16 07:05:52;;;;;;;48.80;34.43;;;;;;;7.48;nan;98909.72;5053662;28;20205;-71
2022/03/16 07:08:18;;;;;;;47.13;33.00;;;;;;;7.52;nan;98913.66;5052852;28;20212;-71
2022/03/16 07:10:45;;;;;;;47.53;33.03;;;;;;;7.52;nan;98908.38;5053540;28;20202;-71
2022/03/16 07:13:15;;;;;;;44.43;32.20;;;;;;;7.57;nan;98908.66;5053157;28;20556;-71
2022/03/16 07:15:46;;;;;;;48.57;34.57;;;;;;;7.67;nan;98901.28;5053490;28;20229;-71
2022/03/16 07:18:12;;;;;;;44.57;31.10;;;;;;;7.76;nan;98910.78;5053442;28;20662;-71
2022/03/16 07:20:39;;;;;;;43.97;32.00;;;;;;;7.51;nan;98918.13;5053245;28;20244;-71
2022/03/16 07:23:14;;;;;;;44.50;32.93;;;;;;;7.54;nan;98917.78;5053356;28;20201;-70
2022/03/16 07:25:44;;;;;;;42.30;30.83;;;;;;;7.68;nan;98922.28;5053462;28;20228;-72
2022/03/16 07:28:11;;;;;;;47.67;33.13;;;;;;;7.45;nan;98929.44;5053438;28;20193;-69
2022/03/16 07:30:38;;;;;;;42.73;32.30;;;;;;;7.64;nan;98928.13;5053653;28;20288;-70
2022/03/16 07:33:06;;;;;;;41.90;31.93;;;;;;;7.63;nan;98934.38;5053308;28;20225;-69
2022/03/16 07:35:34;;;;;;;43.07;32.97;;;;;;;7.53;nan;98939.13;5053151;28;20288;-70
2022/03/16 07:38:01;;;;;;;40.33;31.00;;;;;;;7.41;nan;98932.59;5052905;28;20731;-70
2022/03/16 07:40:29;;;;;;;39.67;30.10;;;;;;;7.44;nan;98937.53;5052839;28;20625;-69
2022/03/16 07:42:55;;;;;;;42.67;32.70;;;;;;;7.36;nan;98937.59;5052952;28;20339;-69
2022/03/16 07:45:22;;;;;;;42.37;30.93;;;;;;;7.52;nan;98940.91;5053073;28;20236;-68
2022/03/16 07:47:52;;;;;;;40.37;31.50;;;;;;;7.53;nan;98941.75;5053003;28;20614;-68
2022/03/16 07:50:19;;;;;;;43.13;31.97;;;;;;;7.63;nan;98942.31;5053033;28;20228;-68
2022/03/16 07:52:46;;;;;;;40.23;31.40;;;;;;;7.63;nan;98932.56;5052939;28;20225;-69
2022/03/16 07:55:13;;;;;;;39.57;30.83;;;;;;;7.64;nan;98941.34;5052613;28;20241;-68
2022/03/16 07:57:40;;;;;;;39.63;29.43;;;;;;;7.56;nan;98949.34;5052861;28;20596;-69
2022/03/16 08:00:10;;;;;;;40.97;29.80;;;;;;;7.63;nan;98952.91;5052901;28;20201;-70
2022/03/16 08:02:37;;;;;;;40.10;30.83;;;;;;;7.60;nan;98954.09;5052818;28;20208;-70
2022/03/16 08:05:04;;;;;;;41.33;31.33;;;;;;;7.51;nan;98955.16;5053588;28;20225;-70
2022/03/16 08:07:31;;;;;;;38.43;29.63;;;;;;;7.45;nan;98947.94;5053062;28;20213;-71
2022/03/16 08:09:58;;;;;;;36.87;28.10;;;;;;;7.66;nan;98952.56;5052637;28;20660;-70
2022/03/16 08:12:25;;;;;;;39.53;29.40;;;;;;;7.41;nan;98953.75;5053691;28;20248;-70
2022/03/16 08:14:52;;;;;;;37.33;29.30;;;;;;;7.51;nan;98954.34;5052988;28;20236;-70
2022/03/16 08:17:19;;;;;;;37.50;28.07;;;;;;;7.70;nan;98954.66;5053023;28;20204;-70
2022/03/16 08:19:46;;;;;;;35.63;28.80;;;;;;;7.62;nan;98954.75;5055372;28;20672;-70
2022/03/16 08:22:12;;;;;;;37.63;30.23;;;;;;;7.61;nan;98942.50;5056951;28;20205;-70
2022/03/16 08:24:39;;;;;;;37.70;28.50;;;;;;;7.73;nan;98948.19;5056828;28;20236;-70
2022/03/16 08:27:06;;;;;;;33.90;28.27;;;;;;;7.65;nan;98945.63;5056432;28;20660;-70
2022/03/16 08:29:32;;;;;;;32.47;26.60;;;;;;;7.61;nan;98941.69;5056369;28;20209;-70
2022/03/16 08:32:00;;;;;;;33.93;26.33;;;;;;;7.68;nan;98943.44;5056332;28;20224;-70
2022/03/16 08:34:26;;;;;;;32.87;27.27;;;;;;;7.77;nan;98939.72;5056299;28;20584;-69
2022/03/16 08:36:53;;;;;;;32.23;26.77;;;;;;;7.64;nan;98949.28;5056437;28;20209;-69
2022/03/16 08:39:19;;;;;;;31.03;26.30;;;;;;;7.79;nan;98950.13;5056450;28;20201;-70
2022/03/16 08:41:45;;;;;;;32.77;27.03;;;;;;;7.68;nan;98942.59;5056551;28;20197;-69
2022/03/16 08:44:12;;;;;;;35.87;27.20;;;;;;;7.62;nan;98943.34;5056364;28;20225;-70
2022/03/16 08:46:38;;;;;;;31.63;26.67;;;;;;;7.66;nan;98948.09;5056475;28;20205;-70
2022/03/16 08:49:05;;;;;;;28.80;24.80;;;;;;;7.70;nan;98943.28;5056576;28;20205;-69
2022/03/16 08:51:31;;;;;;;33.40;26.03;;;;;;;7.71;nan;98945.75;5056161;28;20209;-69
2022/03/16 08:53:57;;;;;;;31.23;25.73;;;;;;;7.83;nan;98943.47;5056308;28;20256;-69
2022/03/16 08:56:24;;;;;;;32.40;26.60;;;;;;;7.84;nan;98939.81;5056276;28;20297;-70
2022/03/16 08:58:50;;;;;;;32.47;25.27;;;;;;;7.93;nan;98936.94;5056383;28;20201;-70
2022/03/16 09:01:17;;;;;;;31.03;25.83;;;;;;;8.03;nan;98931.34;5055939;28;20664;-70
2022/03/16 09:03:43;;;;;;;27.83;23.60;;;;;;;8.20;nan;98936.31;5055796;28;20225;-69
2022/03/16 09:06:09;;;;;;;33.23;26.10;;;;;;;7.93;nan;98933.44;5056268;28;20201;-69
2022/03/16 09:08:36;;;;;;;36.33;25.60;;;;;;;8.23;nan;98929.84;5056166;28;20652;-70
2022/03/16 09:11:02;;;;;;;29.17;25.63;;;;;;;8.28;nan;98928.28;5055968;28;20209;-69
2022/03/16 09:13:28;;;;;;;30.43;24.63;;;;;;;8.43;nan;98929.13;5055859;28;20221;-69
2022/03/16 09:15:59;;;;;;;29.47;25.03;;;;;;;8.31;nan;98927.09;5056032;28;20205;-70
2022/03/16 09:18:26;;;;;;;31.50;25.83;;;;;;;8.37;nan;98931.69;5056306;28;20217;-70
2022/03/16 09:20:53;;;;;;;29.83;24.23;;;;;;;8.61;nan;98921.59;5055815;28;20776;-70
2022/03/16 09:23:20;;;;;;;31.27;23.63;;;;;;;8.73;nan;98927.25;5055491;28;20259;-69
2022/03/16 09:25:46;;;;;;;29.13;24.20;;;;;;;8.69;nan;98925.97;5055106;28;20228;-70
2022/03/16 09:28:13;;;;;;;29.63;24.37;;;;;;;8.47;nan;98918.97;5055504;28;20207;-70
2022/03/16 09:30:40;;;;;;;32.77;25.73;;;;;;;8.52;nan;98922.72;5054623;28;20213;-70
2022/03/16 09:33:06;;;;;;;28.73;25.20;;;;;;;8.46;nan;98925.28;5055138;28;20300;-70
2022/03/16 09:35:34;;;;;;;30.97;24.43;;;;;;;8.71;nan;98919.47;5055167;28;20232;-70
2022/03/16 09:38:00;;;;;;;30.30;25.07;;;;;;;8.72;nan;98922.94;5055178;28;20228;-70
2022/03/16 09:40:27;;;;;;;25.90;22.20;;;;;;;8.97;nan;98921.59;5045723;28;20197;-70
2022/03/16 09:42:54;;;;;;;29.10;23.07;;;;;;;8.68;nan;98927.78;5045452;28;20197;-70
2022/03/16 09:45:22;;;;;;;27.13;23.27;;;;;;;8.89;nan;98919.88;5044098;28;20256;-70
2022/03/16 09:47:50;;;;;;;27.93;23.20;;;;;;;9.13;nan;98924.00;5045479;28;20201;-70
2022/03/16 09:50:19;;;;;;;30.43;24.43;;;;;;;9.12;nan;98935.63;5045676;28;20206;-70
2022/03/16 09:52:47;;;;;;;25.90;23.17;;;;;;;9.58;nan;98932.41;5052494;28;20216;-70
2022/03/16 09:55:17;;;;;;;30.53;24.37;;;;;;;9.45;nan;98934.09;5054554;28;20595;-70
2022/03/16 09:57:43;;;;;;;29.50;23.87;;;;;;;9.52;nan;98929.69;5054856;28;20564;-69
2022/03/16 10:00:13;;;;;;;27.10;23.50;;;;;;;9.52;nan;98924.38;5055002;28;20695;-69
2022/03/16 10:02:41;;;;;;;27.57;24.20;;;;;;;9.45;nan;98924.31;5055270;28;20251;-70
2022/03/16 10:05:09;;;;;;;26.83;23.60;;;;;;;9.55;nan;98930.13;5055231;28;20221;-70
2022/03/16 10:07:37;;;;;;;26.73;23.07;;;;;;;9.41;nan;98917.75;5054862;28;20235;-71
2022/03/16 10:15:38;;;;;;;26.63;22.73;;;;;;;9.83;nan;98914.22;5054559;28;20224;-68
2022/03/16 10:18:05;;;;;;;27.77;22.90;;;;;;;10.17;nan;98903.63;5054823;28;20208;-68
2022/03/16 10:20:39;;;;;;;24.37;21.77;;;;;;;9.92;nan;98903.25;5054481;28;20646;-68
2022/03/16 10:23:13;;;;;;;26.73;21.23;;;;;;;10.28;nan;98898.59;5054917;28;20192;-68
2022/03/16 10:25:40;;;;;;;25.80;22.17;;;;;;;10.22;nan;98898.56;5054173;28;20232;-69
2022/03/16 10:28:12;;;;;;;26.43;22.83;;;;;;;10.14;nan;98894.22;5054282;28;20209;-69
2022/03/16 10:31:00;;;;;;;23.70;21.10;;;;;;;10.26;nan;98897.16;5054404;28;20185;-68
2022/03/16 10:33:33;;;;;;;23.90;21.30;;;;;;;10.18;nan;98892.03;5054211;28;20225;-68
2022/03/16 10:36:01;;;;;;;25.60;20.73;;;;;;;10.49;nan;98887.03;5054662;28;20193;-68
2022/03/16 10:38:30;;;;;;;24.97;21.93;;;;;;;10.31;nan;98889.41;5054468;28;20236;-69
2022/03/16 10:41:12;;;;;;;23.67;21.13;;;;;;;10.72;nan;98892.84;5054393;28;20255;-68
2022/03/16 10:46:39;;;;;;;24.63;20.37;;;;;;;10.67;nan;98887.31;5054076;28;20649;-68
2022/03/16 10:49:09;;;;;;;24.77;20.07;;;;;;;10.48;nan;98880.09;5054248;28;20193;-68
2022/03/16 10:51:36;;;;;;;25.10;21.90;;;;;;;10.49;nan;98884.38;5054077;28;20735;-68
2022/03/16 10:54:05;;;;;;;23.87;19.73;;;;;;;10.76;nan;98881.63;5053784;28;20247;-67
2022/03/16 10:56:32;;;;;;;23.57;20.60;;;;;;;10.85;nan;98879.59;5054206;28;20201;-69
2022/03/16 10:59:00;;;;;;;23.77;20.47;;;;;;;10.68;nan;98870.38;5054095;28;20201;-69
2022/03/16 11:01:28;;;;;;;22.33;19.67;;;;;;;10.60;nan;98867.88;5053862;28;20217;-69
2022/03/16 11:03:58;;;;;;;25.43;20.90;;;;;;;10.96;nan;98865.72;5053560;28;20221;-68
2022/03/16 11:06:25;;;;;;;22.93;20.17;;;;;;;11.14;nan;98872.09;5053943;28;20558;-68
2022/03/16 11:08:53;;;;;;;20.87;18.67;;;;;;;10.98;nan;98877.81;5053596;28;20208;-69
2022/03/16 11:14:06;;;;;;;21.77;19.33;;;;;;;10.98;nan;98866.34;5053664;28;20223;-69
2022/03/16 11:16:33;;;;;;;20.67;18.57;;;;;;;10.86;nan;98862.63;5053878;28;20208;-69
2022/03/16 11:19:05;;;;;;;20.73;18.57;;;;;;;11.09;nan;98853.25;5053941;28;20209;-69
2022/03/16 11:21:54;;;;;;;21.07;18.33;;;;;;;11.23;nan;98854.09;5053528;28;20209;-69
2022/03/16 11:24:24;;;;;;;19.00;17.00;;;;;;;10.98;nan;98852.22;5053388;28;20241;-69
2022/03/16 11:27:10;;;;;;;20.10;17.23;;;;;;;11.09;nan;98858.56;5053644;28;20208;-69
2022/03/16 11:29:48;;;;;;;19.10;17.10;;;;;;;11.18;nan;98866.38;5053407;28;20563;-69
2022/03/16 11:32:19;;;;;;;21.03;18.83;;;;;;;11.13;nan;98869.66;5053340;28;20209;-69
2022/03/16 11:35:13;;;;;;;19.70;17.63;;;;;;;11.36;nan;98862.09;5053156;28;20594;-69
2022/03/16 11:37:50;;;;;;;19.77;17.33;;;;;;;11.54;nan;98867.63;5050877;28;20299;-69
2022/03/16 11:40:22;;;;;;;20.80;18.17;;;;;;;11.57;nan;98864.53;5053612;28;20558;-69
2022/03/16 11:43:04;;;;;;;21.57;17.40;;;;;;;11.72;nan;98869.69;5052899;28;20198;-68
2022/03/16 11:45:37;;;;;;;20.50;18.30;;;;;;;11.94;nan;98860.44;5053048;28;20255;-68
2022/03/16 11:48:31;;;;;;;18.77;16.87;;;;;;;11.49;nan;98863.94;5053141;28;20235;-68
2022/03/16 11:51:06;;;;;;;18.87;17.00;;;;;;;11.23;nan;98860.22;5053558;28;20197;-68
2022/03/16 11:54:00;;;;;;;18.07;16.00;;;;;;;11.58;nan;98854.72;5052598;28;20634;-69
2022/03/16 11:56:36;;;;;;;18.97;16.43;;;;;;;11.61;nan;98849.03;5053054;28;20207;-69